Terminal Aerodrome Forecast
Issued by NWS

Home | Current Version | Previous Version | Text Only | Print | Product List | Glossary On
Versions: 1 2 3 4 5 6 7 8 9 10 11 12 13 14 15 16 17 18 19 20
288
FTUS45 KABQ 292153 AAA
TAFLVS
TAF AMD
KLVS 292153Z 2922/3018 02013KT 1SM -SN BR OVC025
      TEMPO 2922/3002 1/2SM SN FZFG VV007
     FM300800 30010KT 2SM BR SCT035 OVC060
     FM301300 26015KT P6SM FEW250=

USA.gov is the U.S. government's official web portal to all federal, state and local government web resources and services.